sensor_id;sensor_type;location;lat;lon;timestamp;temperature;humidity
79024;DHT22;70306;44.764;37.688;2024-02-15T00:00:00;12.62;63.92
79024;DHT22;70306;44.764;37.688;2024-02-15T00:01:02;12.53;63.70
79024;DHT22;70306;44.764;37.688;2024-02-15T00:02:05;12.43;63.94
79024;DHT22;70306;44.764;37.688;2024-02-15T00:03:07;12.36;64.35
79024;DHT22;70306;44.764;37.688;2024-02-15T00:04:09;12.41;64.03
79024;DHT22;70306;44.764;37.688;2024-02-15T00:05:12;12.48;62.79
79024;DHT22;70306;44.764;37.688;2024-02-15T00:06:16;12.50;63.63
79024;DHT22;70306;44.764;37.688;2024-02-15T00:07:18;12.43;63.65
79024;DHT22;70306;44.764;37.688;2024-02-15T00:08:23;12.24;64.43
79024;DHT22;70306;44.764;37.688;2024-02-15T00:09:26;12.17;63.63
79024;DHT22;70306;44.764;37.688;2024-02-15T00:10:27;12.11;65.08
79024;DHT22;70306;44.764;37.688;2024-02-15T00:11:29;12.07;65.04
79024;DHT22;70306;44.764;37.688;2024-02-15T00:12:31;12.04;64.86
79024;DHT22;70306;44.764;37.688;2024-02-15T00:13:33;12.01;65.29
79024;DHT22;70306;44.764;37.688;2024-02-15T00:14:35;12.01;65.20
79024;DHT22;70306;44.764;37.688;2024-02-15T00:15:39;11.98;65.37
79024;DHT22;70306;44.764;37.688;2024-02-15T00:16:41;11.95;65.66
79024;DHT22;70306;44.764;37.688;2024-02-15T00:17:43;11.90;65.63
79024;DHT22;70306;44.764;37.688;2024-02-15T00:18:45;11.87;65.98
79024;DHT22;70306;44.764;37.688;2024-02-15T00:19:46;11.89;66.29
79024;DHT22;70306;44.764;37.688;2024-02-15T00:20:49;11.91;66.09
79024;DHT22;70306;44.764;37.688;2024-02-15T00:21:50;11.89;65.78
79024;DHT22;70306;44.764;37.688;2024-02-15T00:22:53;11.89;65.79
79024;DHT22;70306;44.764;37.688;2024-02-15T00:23:57;11.86;65.95
79024;DHT22;70306;44.764;37.688;2024-02-15T00:25:01;11.84;66.32
79024;DHT22;70306;44.764;37.688;2024-02-15T00:26:02;11.77;66.38
79024;DHT22;70306;44.764;37.688;2024-02-15T00:27:04;11.74;66.36
79024;DHT22;70306;44.764;37.688;2024-02-15T00:28:12;11.70;66.74
79024;DHT22;70306;44.764;37.688;2024-02-15T00:29:14;11.69;66.94
79024;DHT22;70306;44.764;37.688;2024-02-15T00:30:16;11.66;66.95
79024;DHT22;70306;44.764;37.688;2024-02-15T00:31:18;11.63;66.55
79024;DHT22;70306;44.764;37.688;2024-02-15T00:32:20;11.62;66.50
79024;DHT22;70306;44.764;37.688;2024-02-15T00:33:21;11.59;66.98
79024;DHT22;70306;44.764;37.688;2024-02-15T00:34:23;11.58;67.08
79024;DHT22;70306;44.764;37.688;2024-02-15T00:35:27;11.56;67.06
79024;DHT22;70306;44.764;37.688;2024-02-15T00:36:29;11.54;67.00
79024;DHT22;70306;44.764;37.688;2024-02-15T00:37:31;11.58;66.28
79024;DHT22;70306;44.764;37.688;2024-02-15T00:38:32;11.62;66.52
79024;DHT22;70306;44.764;37.688;2024-02-15T00:39:34;11.61;66.84
79024;DHT22;70306;44.764;37.688;2024-02-15T00:40:36;11.66;66.23
79024;DHT22;70306;44.764;37.688;2024-02-15T00:41:38;11.56;66.79
79024;DHT22;70306;44.764;37.688;2024-02-15T00:42:43;11.54;67.20
79024;DHT22;70306;44.764;37.688;2024-02-15T00:43:44;11.52;67.44
79024;DHT22;70306;44.764;37.688;2024-02-15T00:44:46;11.45;67.54
79024;DHT22;70306;44.764;37.688;2024-02-15T00:45:48;11.49;67.49
79024;DHT22;70306;44.764;37.688;2024-02-15T00:46:50;11.48;67.72
79024;DHT22;70306;44.764;37.688;2024-02-15T00:47:52;11.49;67.80
79024;DHT22;70306;44.764;37.688;2024-02-15T00:48:55;11.51;67.41
79024;DHT22;70306;44.764;37.688;2024-02-15T00:49:57;11.49;67.43
79024;DHT22;70306;44.764;37.688;2024-02-15T00:50:59;11.48;67.11
79024;DHT22;70306;44.764;37.688;2024-02-15T00:52:01;11.49;67.33
79024;DHT22;70306;44.764;37.688;2024-02-15T00:53:03;11.49;66.56
79024;DHT22;70306;44.764;37.688;2024-02-15T00:54:05;11.48;66.63
79024;DHT22;70306;44.764;37.688;2024-02-15T00:55:07;11.49;67.03
79024;DHT22;70306;44.764;37.688;2024-02-15T00:56:09;11.45;67.09
79024;DHT22;70306;44.764;37.688;2024-02-15T00:57:11;11.38;67.39
79024;DHT22;70306;44.764;37.688;2024-02-15T00:58:13;11.38;67.81
79024;DHT22;70306;44.764;37.688;2024-02-15T00:59:14;11.34;66.88
79024;DHT22;70306;44.764;37.688;2024-02-15T01:00:16;11.36;66.87
79024;DHT22;70306;44.764;37.688;2024-02-15T01:01:18;11.34;67.16
79024;DHT22;70306;44.764;37.688;2024-02-15T01:02:20;11.29;67.55
79024;DHT22;70306;44.764;37.688;2024-02-15T01:03:23;11.25;67.95
79024;DHT22;70306;44.764;37.688;2024-02-15T01:04:25;11.18;68.46
79024;DHT22;70306;44.764;37.688;2024-02-15T01:05:26;11.11;68.72
79024;DHT22;70306;44.764;37.688;2024-02-15T01:06:28;11.03;68.35
79024;DHT22;70306;44.764;37.688;2024-02-15T01:07:30;11.03;68.72
79024;DHT22;70306;44.764;37.688;2024-02-15T01:08:33;11.01;69.00
79024;DHT22;70306;44.764;37.688;2024-02-15T01:09:35;10.99;69.03
79024;DHT22;70306;44.764;37.688;2024-02-15T01:10:37;10.97;68.92
79024;DHT22;70306;44.764;37.688;2024-02-15T01:11:39;10.96;68.72
79024;DHT22;70306;44.764;37.688;2024-02-15T01:12:41;10.99;68.88
79024;DHT22;70306;44.764;37.688;2024-02-15T01:13:43;10.96;69.13
79024;DHT22;70306;44.764;37.688;2024-02-15T01:14:45;10.97;68.88
79024;DHT22;70306;44.764;37.688;2024-02-15T01:15:47;10.99;68.75
79024;DHT22;70306;44.764;37.688;2024-02-15T01:16:49;11.01;68.54
79024;DHT22;70306;44.764;37.688;2024-02-15T01:17:51;11.03;68.54
79024;DHT22;70306;44.764;37.688;2024-02-15T01:18:52;11.04;68.02
79024;DHT22;70306;44.764;37.688;2024-02-15T01:19:54;10.96;68.50
79024;DHT22;70306;44.764;37.688;2024-02-15T01:20:57;10.93;68.82
79024;DHT22;70306;44.764;37.688;2024-02-15T01:21:59;10.92;69.15
79024;DHT22;70306;44.764;37.688;2024-02-15T01:23:01;10.90;69.00
79024;DHT22;70306;44.764;37.688;2024-02-15T01:24:03;10.89;69.25
79024;DHT22;70306;44.764;37.688;2024-02-15T01:25:07;10.81;69.09
79024;DHT22;70306;44.764;37.688;2024-02-15T01:26:10;10.77;69.77
79024;DHT22;70306;44.764;37.688;2024-02-15T01:27:14;10.76;69.68
79024;DHT22;70306;44.764;37.688;2024-02-15T01:28:15;10.75;69.69
79024;DHT22;70306;44.764;37.688;2024-02-15T01:29:17;10.76;69.97
79024;DHT22;70306;44.764;37.688;2024-02-15T01:30:19;10.81;70.12
79024;DHT22;70306;44.764;37.688;2024-02-15T01:31:21;10.80;69.55
79024;DHT22;70306;44.764;37.688;2024-02-15T01:32:23;10.81;69.86
79024;DHT22;70306;44.764;37.688;2024-02-15T01:33:32;10.79;69.46
79024;DHT22;70306;44.764;37.688;2024-02-15T01:34:33;10.83;69.35
79024;DHT22;70306;44.764;37.688;2024-02-15T01:35:35;10.81;68.78
79024;DHT22;70306;44.764;37.688;2024-02-15T01:36:37;10.87;68.52
79024;DHT22;70306;44.764;37.688;2024-02-15T01:37:39;10.80;68.94
79024;DHT22;70306;44.764;37.688;2024-02-15T01:38:41;10.76;69.02
79024;DHT22;70306;44.764;37.688;2024-02-15T01:39:43;10.77;69.21
79024;DHT22;70306;44.764;37.688;2024-02-15T01:40:47;10.77;69.53
79024;DHT22;70306;44.764;37.688;2024-02-15T01:41:49;10.76;68.93
79024;DHT22;70306;44.764;37.688;2024-02-15T01:42:52;10.72;69.65
79024;DHT22;70306;44.764;37.688;2024-02-15T01:43:54;10.70;69.77
79024;DHT22;70306;44.764;37.688;2024-02-15T01:44:56;10.65;70.10
79024;DHT22;70306;44.764;37.688;2024-02-15T01:45:58;10.66;69.80
79024;DHT22;70306;44.764;37.688;2024-02-15T01:47:04;10.60;70.28
79024;DHT22;70306;44.764;37.688;2024-02-15T01:48:07;10.59;70.38
79024;DHT22;70306;44.764;37.688;2024-02-15T01:49:09;10.58;70.47
79024;DHT22;70306;44.764;37.688;2024-02-15T01:50:11;10.51;70.57
79024;DHT22;70306;44.764;37.688;2024-02-15T01:51:14;10.52;70.60
79024;DHT22;70306;44.764;37.688;2024-02-15T01:52:17;10.56;69.52
79024;DHT22;70306;44.764;37.688;2024-02-15T01:53:19;10.60;69.52
79024;DHT22;70306;44.764;37.688;2024-02-15T01:54:21;10.56;69.95
79024;DHT22;70306;44.764;37.688;2024-02-15T01:55:23;10.52;70.05
79024;DHT22;70306;44.764;37.688;2024-02-15T01:56:29;10.53;69.75
79024;DHT22;70306;44.764;37.688;2024-02-15T01:57:31;10.46;70.68
79024;DHT22;70306;44.764;37.688;2024-02-15T01:58:34;10.41;71.11
79024;DHT22;70306;44.764;37.688;2024-02-15T01:59:37;10.38;71.53
79024;DHT22;70306;44.764;37.688;2024-02-15T02:00:39;10.35;71.59
79024;DHT22;70306;44.764;37.688;2024-02-15T02:01:42;10.35;71.56
79024;DHT22;70306;44.764;37.688;2024-02-15T02:02:44;10.30;71.76
79024;DHT22;70306;44.764;37.688;2024-02-15T02:03:46;10.27;71.51
79024;DHT22;70306;44.764;37.688;2024-02-15T02:04:48;10.28;71.92
79024;DHT22;70306;44.764;37.688;2024-02-15T02:05:50;10.24;72.02
79024;DHT22;70306;44.764;37.688;2024-02-15T02:06:52;10.21;72.05
79024;DHT22;70306;44.764;37.688;2024-02-15T02:08:00;10.25;72.08
79024;DHT22;70306;44.764;37.688;2024-02-15T02:09:05;10.24;71.83
79024;DHT22;70306;44.764;37.688;2024-02-15T02:10:07;10.27;71.39
79024;DHT22;70306;44.764;37.688;2024-02-15T02:11:12;10.27;71.76
79024;DHT22;70306;44.764;37.688;2024-02-15T02:12:14;10.21;71.84
79024;DHT22;70306;44.764;37.688;2024-02-15T02:13:16;10.22;72.22
79024;DHT22;70306;44.764;37.688;2024-02-15T02:14:18;10.24;71.90
79024;DHT22;70306;44.764;37.688;2024-02-15T02:15:21;10.25;71.95
79024;DHT22;70306;44.764;37.688;2024-02-15T02:16:30;10.22;72.38
79024;DHT22;70306;44.764;37.688;2024-02-15T02:17:37;10.17;72.63
79024;DHT22;70306;44.764;37.688;2024-02-15T02:18:38;10.17;72.71
79024;DHT22;70306;44.764;37.688;2024-02-15T02:19:41;10.21;72.88
79024;DHT22;70306;44.764;37.688;2024-02-15T02:20:44;10.18;72.58
79024;DHT22;70306;44.764;37.688;2024-02-15T02:21:47;10.21;72.30
79024;DHT22;70306;44.764;37.688;2024-02-15T02:22:53;10.15;71.97
79024;DHT22;70306;44.764;37.688;2024-02-15T02:23:58;10.15;72.24
79024;DHT22;70306;44.764;37.688;2024-02-15T02:25:05;10.13;72.48
79024;DHT22;70306;44.764;37.688;2024-02-15T02:26:08;10.11;72.34
79024;DHT22;70306;44.764;37.688;2024-02-15T02:27:13;10.10;72.86
79024;DHT22;70306;44.764;37.688;2024-02-15T02:28:15;10.07;72.99
79024;DHT22;70306;44.764;37.688;2024-02-15T02:29:19;10.03;73.23
79024;DHT22;70306;44.764;37.688;2024-02-15T02:30:22;10.06;72.94
79024;DHT22;70306;44.764;37.688;2024-02-15T02:31:24;10.11;73.11
79024;DHT22;70306;44.764;37.688;2024-02-15T02:32:26;10.17;73.15
79024;DHT22;70306;44.764;37.688;2024-02-15T02:33:28;10.17;72.87
79024;DHT22;70306;44.764;37.688;2024-02-15T02:34:30;10.17;72.36
79024;DHT22;70306;44.764;37.688;2024-02-15T02:35:32;10.20;72.40
79024;DHT22;70306;44.764;37.688;2024-02-15T02:36:34;10.24;72.58
79024;DHT22;70306;44.764;37.688;2024-02-15T02:37:40;10.20;72.62
79024;DHT22;70306;44.764;37.688;2024-02-15T02:38:42;10.15;72.36
79024;DHT22;70306;44.764;37.688;2024-02-15T02:39:46;10.11;72.69
79024;DHT22;70306;44.764;37.688;2024-02-15T02:40:48;10.13;72.63
79024;DHT22;70306;44.764;37.688;2024-02-15T02:41:50;10.11;72.68
79024;DHT22;70306;44.764;37.688;2024-02-15T02:42:54;10.08;72.32
79024;DHT22;70306;44.764;37.688;2024-02-15T02:44:01;10.03;72.89
79024;DHT22;70306;44.764;37.688;2024-02-15T02:45:03;10.04;73.30
79024;DHT22;70306;44.764;37.688;2024-02-15T02:46:04;10.03;73.12
79024;DHT22;70306;44.764;37.688;2024-02-15T02:47:07;10.03;73.06
79024;DHT22;70306;44.764;37.688;2024-02-15T02:48:09;10.03;73.07
79024;DHT22;70306;44.764;37.688;2024-02-15T02:49:10;10.04;73.32
79024;DHT22;70306;44.764;37.688;2024-02-15T02:50:13;10.08;73.25
79024;DHT22;70306;44.764;37.688;2024-02-15T02:51:15;10.14;73.05
79024;DHT22;70306;44.764;37.688;2024-02-15T02:52:17;10.13;73.03
79024;DHT22;70306;44.764;37.688;2024-02-15T02:53:19;10.06;73.25
79024;DHT22;70306;44.764;37.688;2024-02-15T02:54:21;10.03;73.07
79024;DHT22;70306;44.764;37.688;2024-02-15T02:55:23;10.07;72.58
79024;DHT22;70306;44.764;37.688;2024-02-15T02:56:25;10.08;72.28
79024;DHT22;70306;44.764;37.688;2024-02-15T02:57:27;10.08;72.81
79024;DHT22;70306;44.764;37.688;2024-02-15T02:58:28;10.08;73.12
79024;DHT22;70306;44.764;37.688;2024-02-15T02:59:30;10.10;72.47
79024;DHT22;70306;44.764;37.688;2024-02-15T03:00:32;10.17;72.08
79024;DHT22;70306;44.764;37.688;2024-02-15T03:01:34;10.15;71.99
79024;DHT22;70306;44.764;37.688;2024-02-15T03:02:36;10.17;72.07
79024;DHT22;70306;44.764;37.688;2024-02-15T03:03:37;10.18;71.91
79024;DHT22;70306;44.764;37.688;2024-02-15T03:04:42;10.15;71.84
79024;DHT22;70306;44.764;37.688;2024-02-15T03:05:44;10.14;72.00
79024;DHT22;70306;44.764;37.688;2024-02-15T03:06:46;10.10;72.48
79024;DHT22;70306;44.764;37.688;2024-02-15T03:07:49;9.99;73.11
79024;DHT22;70306;44.764;37.688;2024-02-15T03:08:53;9.90;73.51
79024;DHT22;70306;44.764;37.688;2024-02-15T03:09:59;9.80;73.91
79024;DHT22;70306;44.764;37.688;2024-02-15T03:11:01;9.71;74.49
79024;DHT22;70306;44.764;37.688;2024-02-15T03:12:03;9.65;74.85
79024;DHT22;70306;44.764;37.688;2024-02-15T03:13:05;9.59;74.95
79024;DHT22;70306;44.764;37.688;2024-02-15T03:14:08;9.55;75.11
79024;DHT22;70306;44.764;37.688;2024-02-15T03:15:09;9.54;75.22
79024;DHT22;70306;44.764;37.688;2024-02-15T03:16:22;9.56;75.29
79024;DHT22;70306;44.764;37.688;2024-02-15T03:17:26;9.66;74.69
79024;DHT22;70306;44.764;37.688;2024-02-15T03:18:27;9.68;74.11
79024;DHT22;70306;44.764;37.688;2024-02-15T03:19:30;9.73;73.85
79024;DHT22;70306;44.764;37.688;2024-02-15T03:20:33;9.75;73.98
79024;DHT22;70306;44.764;37.688;2024-02-15T03:21:35;9.78;73.93
79024;DHT22;70306;44.764;37.688;2024-02-15T03:22:37;9.78;73.51
79024;DHT22;70306;44.764;37.688;2024-02-15T03:23:39;9.76;73.67
79024;DHT22;70306;44.764;37.688;2024-02-15T03:24:41;9.78;73.76
79024;DHT22;70306;44.764;37.688;2024-02-15T03:25:43;9.73;73.63
79024;DHT22;70306;44.764;37.688;2024-02-15T03:26:45;9.78;73.34
79024;DHT22;70306;44.764;37.688;2024-02-15T03:27:47;9.72;73.38
79024;DHT22;70306;44.764;37.688;2024-02-15T03:28:48;9.76;72.96
79024;DHT22;70306;44.764;37.688;2024-02-15T03:29:52;9.75;72.89
79024;DHT22;70306;44.764;37.688;2024-02-15T03:30:54;9.76;73.52
79024;DHT22;70306;44.764;37.688;2024-02-15T03:31:57;9.75;74.05
79024;DHT22;70306;44.764;37.688;2024-02-15T03:32:59;9.79;72.32
79024;DHT22;70306;44.764;37.688;2024-02-15T03:34:01;9.79;72.80
79024;DHT22;70306;44.764;37.688;2024-02-15T03:35:03;9.75;72.22
79024;DHT22;70306;44.764;37.688;2024-02-15T03:36:05;9.85;71.52
79024;DHT22;70306;44.764;37.688;2024-02-15T03:37:07;9.94;70.37
79024;DHT22;70306;44.764;37.688;2024-02-15T03:38:08;9.99;71.31
79024;DHT22;70306;44.764;37.688;2024-02-15T03:39:10;9.82;72.54
79024;DHT22;70306;44.764;37.688;2024-02-15T03:40:12;9.75;73.21
79024;DHT22;70306;44.764;37.688;2024-02-15T03:41:15;9.66;73.57
79024;DHT22;70306;44.764;37.688;2024-02-15T03:42:17;9.59;73.93
79024;DHT22;70306;44.764;37.688;2024-02-15T03:43:19;9.54;74.22
79024;DHT22;70306;44.764;37.688;2024-02-15T03:44:20;9.48;74.31
79024;DHT22;70306;44.764;37.688;2024-02-15T03:45:22;9.51;74.56
79024;DHT22;70306;44.764;37.688;2024-02-15T03:46:26;9.51;74.12
79024;DHT22;70306;44.764;37.688;2024-02-15T03:47:28;9.51;74.11
79024;DHT22;70306;44.764;37.688;2024-02-15T03:48:30;9.45;74.25
79024;DHT22;70306;44.764;37.688;2024-02-15T03:49:33;9.51;73.35
79024;DHT22;70306;44.764;37.688;2024-02-15T03:50:35;9.56;73.17
79024;DHT22;70306;44.764;37.688;2024-02-15T03:51:37;9.59;73.15
79024;DHT22;70306;44.764;37.688;2024-02-15T03:52:38;9.52;73.85
79024;DHT22;70306;44.764;37.688;2024-02-15T03:53:40;9.48;74.05
79024;DHT22;70306;44.764;37.688;2024-02-15T03:54:42;9.48;73.86
79024;DHT22;70306;44.764;37.688;2024-02-15T03:55:44;9.51;73.82
79024;DHT22;70306;44.764;37.688;2024-02-15T03:56:50;9.51;73.92
79024;DHT22;70306;44.764;37.688;2024-02-15T03:57:56;9.54;74.03
79024;DHT22;70306;44.764;37.688;2024-02-15T03:58:59;9.58;74.13
79024;DHT22;70306;44.764;37.688;2024-02-15T04:00:01;9.49;74.40
79024;DHT22;70306;44.764;37.688;2024-02-15T04:01:11;9.45;74.57
79024;DHT22;70306;44.764;37.688;2024-02-15T04:02:17;9.44;74.51
79024;DHT22;70306;44.764;37.688;2024-02-15T04:03:19;9.42;74.28
79024;DHT22;70306;44.764;37.688;2024-02-15T04:04:22;9.39;74.63
79024;DHT22;70306;44.764;37.688;2024-02-15T04:05:23;9.39;74.71
79024;DHT22;70306;44.764;37.688;2024-02-15T04:06:25;9.35;74.53
79024;DHT22;70306;44.764;37.688;2024-02-15T04:07:29;9.35;74.72
79024;DHT22;70306;44.764;37.688;2024-02-15T04:08:31;9.31;75.16
79024;DHT22;70306;44.764;37.688;2024-02-15T04:09:34;9.31;74.73
79024;DHT22;70306;44.764;37.688;2024-02-15T04:10:37;9.30;74.93
79024;DHT22;70306;44.764;37.688;2024-02-15T04:11:38;9.28;75.15
79024;DHT22;70306;44.764;37.688;2024-02-15T04:12:41;9.21;75.46
79024;DHT22;70306;44.764;37.688;2024-02-15T04:13:45;9.20;75.64
79024;DHT22;70306;44.764;37.688;2024-02-15T04:14:47;9.14;76.04
79024;DHT22;70306;44.764;37.688;2024-02-15T04:15:49;9.16;75.70
79024;DHT22;70306;44.764;37.688;2024-02-15T04:16:52;9.20;75.51
79024;DHT22;70306;44.764;37.688;2024-02-15T04:17:54;9.19;75.43
79024;DHT22;70306;44.764;37.688;2024-02-15T04:19:03;9.16;75.67
79024;DHT22;70306;44.764;37.688;2024-02-15T04:20:05;9.14;75.63
79024;DHT22;70306;44.764;37.688;2024-02-15T04:21:08;9.11;75.79
79024;DHT22;70306;44.764;37.688;2024-02-15T04:22:11;9.13;75.91
79024;DHT22;70306;44.764;37.688;2024-02-15T04:23:18;9.17;75.60
79024;DHT22;70306;44.764;37.688;2024-02-15T04:24:26;9.23;75.35
79024;DHT22;70306;44.764;37.688;2024-02-15T04:25:28;9.20;75.65
79024;DHT22;70306;44.764;37.688;2024-02-15T04:26:30;9.16;75.70
79024;DHT22;70306;44.764;37.688;2024-02-15T04:27:33;9.17;75.31
79024;DHT22;70306;44.764;37.688;2024-02-15T04:28:35;9.16;75.94
79024;DHT22;70306;44.764;37.688;2024-02-15T04:29:38;9.11;76.19
79024;DHT22;70306;44.764;37.688;2024-02-15T04:30:42;9.06;76.46
79024;DHT22;70306;44.764;37.688;2024-02-15T04:31:44;9.07;76.41
79024;DHT22;70306;44.764;37.688;2024-02-15T04:32:46;9.07;76.44
79024;DHT22;70306;44.764;37.688;2024-02-15T04:33:48;9.04;76.58
79024;DHT22;70306;44.764;37.688;2024-02-15T04:34:50;9.00;76.70
79024;DHT22;70306;44.764;37.688;2024-02-15T04:35:53;9.00;76.78
79024;DHT22;70306;44.764;37.688;2024-02-15T04:36:55;9.00;76.96
79024;DHT22;70306;44.764;37.688;2024-02-15T04:37:57;8.96;77.37
79024;DHT22;70306;44.764;37.688;2024-02-15T04:38:59;8.92;77.61
79024;DHT22;70306;44.764;37.688;2024-02-15T04:40:03;8.86;77.73
79024;DHT22;70306;44.764;37.688;2024-02-15T04:41:12;8.82;77.79
79024;DHT22;70306;44.764;37.688;2024-02-15T04:42:13;8.83;77.88
79024;DHT22;70306;44.764;37.688;2024-02-15T04:43:17;8.85;77.95
79024;DHT22;70306;44.764;37.688;2024-02-15T04:44:19;8.86;78.05
79024;DHT22;70306;44.764;37.688;2024-02-15T04:45:28;8.83;78.14
79024;DHT22;70306;44.764;37.688;2024-02-15T04:46:48;8.80;78.15
79024;DHT22;70306;44.764;37.688;2024-02-15T04:47:53;8.82;78.21
79024;DHT22;70306;44.764;37.688;2024-02-15T04:48:55;8.77;78.28
79024;DHT22;70306;44.764;37.688;2024-02-15T04:49:59;8.79;78.25
79024;DHT22;70306;44.764;37.688;2024-02-15T04:51:01;8.73;78.51
79024;DHT22;70306;44.764;37.688;2024-02-15T04:52:03;8.72;78.54
79024;DHT22;70306;44.764;37.688;2024-02-15T04:53:05;8.71;78.45
79024;DHT22;70306;44.764;37.688;2024-02-15T04:54:08;8.72;78.54
79024;DHT22;70306;44.764;37.688;2024-02-15T04:55:14;8.66;78.49
79024;DHT22;70306;44.764;37.688;2024-02-15T04:56:16;8.71;78.35
79024;DHT22;70306;44.764;37.688;2024-02-15T04:57:18;8.68;78.27
79024;DHT22;70306;44.764;37.688;2024-02-15T04:58:20;8.65;78.44
79024;DHT22;70306;44.764;37.688;2024-02-15T04:59:22;8.64;78.35
79024;DHT22;70306;44.764;37.688;2024-02-15T05:00:27;8.62;78.43
79024;DHT22;70306;44.764;37.688;2024-02-15T05:01:30;8.64;78.36
79024;DHT22;70306;44.764;37.688;2024-02-15T05:02:34;8.64;78.14
79024;DHT22;70306;44.764;37.688;2024-02-15T05:03:42;8.66;78.04
79024;DHT22;70306;44.764;37.688;2024-02-15T05:04:44;8.72;77.64
79024;DHT22;70306;44.764;37.688;2024-02-15T05:05:46;8.72;77.31
79024;DHT22;70306;44.764;37.688;2024-02-15T05:06:49;8.69;77.46
79024;DHT22;70306;44.764;37.688;2024-02-15T05:07:50;8.69;77.46
79024;DHT22;70306;44.764;37.688;2024-02-15T05:08:52;8.72;77.16
79024;DHT22;70306;44.764;37.688;2024-02-15T05:09:54;8.73;76.98
79024;DHT22;70306;44.764;37.688;2024-02-15T05:10:55;8.73;77.46
79024;DHT22;70306;44.764;37.688;2024-02-15T05:12:00;8.75;77.48
79024;DHT22;70306;44.764;37.688;2024-02-15T05:13:03;8.69;77.30
79024;DHT22;70306;44.764;37.688;2024-02-15T05:14:05;8.69;77.50
79024;DHT22;70306;44.764;37.688;2024-02-15T05:15:09;8.66;77.69
79024;DHT22;70306;44.764;37.688;2024-02-15T05:16:14;8.65;77.41
79024;DHT22;70306;44.764;37.688;2024-02-15T05:17:16;8.64;77.39
79024;DHT22;70306;44.764;37.688;2024-02-15T05:18:18;8.68;77.33
79024;DHT22;70306;44.764;37.688;2024-02-15T05:19:19;8.68;77.43
79024;DHT22;70306;44.764;37.688;2024-02-15T05:20:21;8.66;77.57
79024;DHT22;70306;44.764;37.688;2024-02-15T05:21:23;8.68;77.55
79024;DHT22;70306;44.764;37.688;2024-02-15T05:22:25;8.69;77.45
79024;DHT22;70306;44.764;37.688;2024-02-15T05:23:30;8.66;77.50
79024;DHT22;70306;44.764;37.688;2024-02-15T05:24:32;8.65;77.69
79024;DHT22;70306;44.764;37.688;2024-02-15T05:25:34;8.64;77.61
79024;DHT22;70306;44.764;37.688;2024-02-15T05:26:36;8.64;77.77
79024;DHT22;70306;44.764;37.688;2024-02-15T05:27:38;8.59;77.62
79024;DHT22;70306;44.764;37.688;2024-02-15T05:28:40;8.58;77.89
79024;DHT22;70306;44.764;37.688;2024-02-15T05:29:42;8.58;77.75
79024;DHT22;70306;44.764;37.688;2024-02-15T05:30:44;8.57;77.68
79024;DHT22;70306;44.764;37.688;2024-02-15T05:31:46;8.58;77.63
79024;DHT22;70306;44.764;37.688;2024-02-15T05:32:48;8.58;77.40
79024;DHT22;70306;44.764;37.688;2024-02-15T05:33:52;8.61;77.60
79024;DHT22;70306;44.764;37.688;2024-02-15T05:34:54;8.62;77.65
79024;DHT22;70306;44.764;37.688;2024-02-15T05:35:56;8.59;77.55
79024;DHT22;70306;44.764;37.688;2024-02-15T05:36:58;8.58;77.22
79024;DHT22;70306;44.764;37.688;2024-02-15T05:38:00;8.61;77.06
79024;DHT22;70306;44.764;37.688;2024-02-15T05:39:05;8.59;77.70
79024;DHT22;70306;44.764;37.688;2024-02-15T05:40:07;8.58;77.35
79024;DHT22;70306;44.764;37.688;2024-02-15T05:41:16;8.57;77.26
79024;DHT22;70306;44.764;37.688;2024-02-15T05:42:18;8.59;77.53
79024;DHT22;70306;44.764;37.688;2024-02-15T05:43:19;8.57;77.31
79024;DHT22;70306;44.764;37.688;2024-02-15T05:44:21;8.58;77.62
79024;DHT22;70306;44.764;37.688;2024-02-15T05:45:29;8.59;77.61
79024;DHT22;70306;44.764;37.688;2024-02-15T05:46:33;8.58;77.62
79024;DHT22;70306;44.764;37.688;2024-02-15T05:47:38;8.61;77.49
79024;DHT22;70306;44.764;37.688;2024-02-15T05:48:40;8.62;77.06
79024;DHT22;70306;44.764;37.688;2024-02-15T05:49:42;8.64;77.37
79024;DHT22;70306;44.764;37.688;2024-02-15T05:50:44;8.61;77.65
79024;DHT22;70306;44.764;37.688;2024-02-15T05:51:48;8.59;77.71
79024;DHT22;70306;44.764;37.688;2024-02-15T05:52:49;8.59;77.82
79024;DHT22;70306;44.764;37.688;2024-02-15T05:53:54;8.55;77.88
79024;DHT22;70306;44.764;37.688;2024-02-15T05:54:59;8.54;77.91
79024;DHT22;70306;44.764;37.688;2024-02-15T05:56:06;8.54;78.08
79024;DHT22;70306;44.764;37.688;2024-02-15T05:57:08;8.58;77.79
79024;DHT22;70306;44.764;37.688;2024-02-15T05:58:10;8.59;77.80
79024;DHT22;70306;44.764;37.688;2024-02-15T05:59:12;8.65;78.04
79024;DHT22;70306;44.764;37.688;2024-02-15T06:00:17;8.68;77.39
79024;DHT22;70306;44.764;37.688;2024-02-15T06:01:20;8.68;77.14
79024;DHT22;70306;44.764;37.688;2024-02-15T06:02:22;8.68;77.45
79024;DHT22;70306;44.764;37.688;2024-02-15T06:03:24;8.71;76.96
79024;DHT22;70306;44.764;37.688;2024-02-15T06:04:27;8.62;77.29
79024;DHT22;70306;44.764;37.688;2024-02-15T06:05:31;8.64;77.61
79024;DHT22;70306;44.764;37.688;2024-02-15T06:06:34;8.61;77.62
79024;DHT22;70306;44.764;37.688;2024-02-15T06:07:36;8.57;77.79
79024;DHT22;70306;44.764;37.688;2024-02-15T06:08:38;8.51;77.72
79024;DHT22;70306;44.764;37.688;2024-02-15T06:09:39;8.51;78.30
79024;DHT22;70306;44.764;37.688;2024-02-15T06:10:41;8.54;78.00
79024;DHT22;70306;44.764;37.688;2024-02-15T06:11:43;8.59;77.57
79024;DHT22;70306;44.764;37.688;2024-02-15T06:12:46;8.57;77.54
79024;DHT22;70306;44.764;37.688;2024-02-15T06:13:48;8.55;77.57
79024;DHT22;70306;44.764;37.688;2024-02-15T06:14:50;8.48;77.58
79024;DHT22;70306;44.764;37.688;2024-02-15T06:15:52;8.42;77.54
79024;DHT22;70306;44.764;37.688;2024-02-15T06:16:55;8.40;77.78
79024;DHT22;70306;44.764;37.688;2024-02-15T06:17:57;8.40;77.59
79024;DHT22;70306;44.764;37.688;2024-02-15T06:18:59;8.40;77.60
79024;DHT22;70306;44.764;37.688;2024-02-15T06:20:01;8.41;77.72
79024;DHT22;70306;44.764;37.688;2024-02-15T06:21:03;8.37;77.56
79024;DHT22;70306;44.764;37.688;2024-02-15T06:22:05;8.34;77.92
79024;DHT22;70306;44.764;37.688;2024-02-15T06:23:07;8.34;77.97
79024;DHT22;70306;44.764;37.688;2024-02-15T06:24:09;8.36;77.76
79024;DHT22;70306;44.764;37.688;2024-02-15T06:25:12;8.36;77.61
79024;DHT22;70306;44.764;37.688;2024-02-15T06:26:21;8.37;77.90
79024;DHT22;70306;44.764;37.688;2024-02-15T06:27:23;8.37;77.45
79024;DHT22;70306;44.764;37.688;2024-02-15T06:28:26;8.40;77.37
79024;DHT22;70306;44.764;37.688;2024-02-15T06:29:51;8.41;77.40
79024;DHT22;70306;44.764;37.688;2024-02-15T06:31:11;8.40;77.37
79024;DHT22;70306;44.764;37.688;2024-02-15T06:32:32;8.34;77.71
79024;DHT22;70306;44.764;37.688;2024-02-15T06:33:52;8.34;77.83